Time;durP1;ratioP1;P1;durP2;ratioP2;P2;SDS_P1;SDS_P2;PMS_P1;PMS_P2;Temp;Humidity;BMP_temperature;BMP_pressure;BME280_temperature;BME280_humidity;BME280_pressure;Samples;Min_cycle;Max_cycle;Signal;HPM_P1;HPM_P2
2022/08/13 00:01:38;;;;;;;27.02;12.15;;;18.00;99.90;;;;;;5041672;28;20060;-74
2022/08/13 00:04:13;;;;;;;28.02;12.43;;;18.00;99.90;;;;;;5077299;28;20470;-75
2022/08/13 00:07:09;;;;;;;29.73;13.68;;;17.90;99.90;;;;;;5077049;28;20055;-74
2022/08/13 00:09:40;;;;;;;29.63;13.02;;;17.90;99.90;;;;;;5075777;28;20047;-75
2022/08/13 00:15:05;;;;;;;25.23;12.88;;;17.80;99.90;;;;;;5058505;28;20063;-73
2022/08/13 00:17:44;;;;;;;24.15;11.95;;;17.80;99.90;;;;;;5076593;28;20072;-78
2022/08/13 00:20:38;;;;;;;29.73;15.05;;;17.70;99.90;;;;;;5076488;28;20458;-74
2022/08/13 00:23:09;;;;;;;29.98;13.23;;;17.70;99.90;;;;;;5041324;28;20048;-75
2022/08/13 00:25:54;;;;;;;31.30;14.63;;;17.70;99.90;;;;;;5076670;28;20509;-75
2022/08/13 00:28:28;;;;;;;29.13;14.57;;;17.70;99.90;;;;;;5058090;28;20486;-78
2022/08/13 00:30:59;;;;;;;29.58;12.85;;;17.60;99.90;;;;;;5042281;28;20056;-75
2022/08/13 00:33:27;;;;;;;18.98;11.57;;;17.60;99.90;;;;;;5059723;28;20040;-74
2022/08/13 00:36:14;;;;;;;24.67;12.27;;;17.60;99.90;;;;;;5075113;28;20048;-77
2022/08/13 00:38:52;;;;;;;22.95;12.40;;;17.70;99.90;;;;;;5058697;28;20040;-75
2022/08/13 00:41:38;;;;;;;33.90;13.70;;;17.50;99.90;;;;;;5058070;28;20405;-77
2022/08/13 00:44:31;;;;;;;26.33;13.27;;;17.50;99.90;;;;;;5076194;28;20055;-75
2022/08/13 00:49:47;;;;;;;32.10;14.85;;;17.50;99.90;;;;;;5074884;28;20370;-78
2022/08/13 00:52:30;;;;;;;33.55;14.93;;;17.40;99.90;;;;;;5060823;28;20048;-75
2022/08/13 00:55:00;;;;;;;26.73;13.70;;;17.40;99.90;;;;;;5075147;28;20052;-77
2022/08/13 00:57:31;;;;;;;31.65;14.38;;;17.50;99.90;;;;;;5058528;28;20059;-76
2022/08/13 01:00:07;;;;;;;32.92;15.35;;;17.30;99.90;;;;;;5058503;28;20037;-75
2022/08/13 01:02:50;;;;;;;34.75;16.48;;;17.30;99.90;;;;;;5074778;28;20044;-76
2022/08/13 01:05:25;;;;;;;26.65;15.52;;;17.30;99.90;;;;;;5074877;28;20051;-76
2022/08/13 01:07:59;;;;;;;41.17;19.30;;;17.30;99.90;;;;;;5073819;28;20056;-76
2022/08/13 01:10:30;;;;;;;35.83;18.75;;;17.30;99.90;;;;;;5075415;28;20048;-78
2022/08/13 01:13:00;;;;;;;40.95;20.02;;;17.20;99.90;;;;;;5075536;28;20041;-74
2022/08/13 01:15:30;;;;;;;42.67;21.27;;;17.30;99.90;;;;;;5074893;28;20052;-78
2022/08/13 01:18:20;;;;;;;36.10;20.00;;;17.20;99.90;;;;;;5075247;28;20040;-76
2022/08/13 01:20:59;;;;;;;33.90;17.60;;;17.20;99.90;;;;;;5058051;28;20040;-75
2022/08/13 01:23:30;;;;;;;30.17;17.20;;;17.20;99.90;;;;;;5074821;28;20049;-74
2022/08/13 01:26:08;;;;;;;32.08;17.88;;;17.20;99.90;;;;;;5041424;28;20044;-76
2022/08/13 01:28:40;;;;;;;34.67;18.33;;;17.20;99.90;;;;;;5056880;28;20048;-78
2022/08/13 01:31:13;;;;;;;29.80;16.73;;;17.40;99.90;;;;;;5075411;28;20490;-76
2022/08/13 01:33:47;;;;;;;31.25;14.65;;;17.10;99.90;;;;;;5075748;28;20048;-73
2022/08/13 01:36:21;;;;;;;33.22;16.02;;;17.10;99.90;;;;;;5056756;28;20056;-76
2022/08/13 01:39:10;;;;;;;28.33;14.38;;;17.10;99.90;;;;;;5061082;28;20467;-75
2022/08/13 01:41:48;;;;;;;34.92;16.20;;;17.00;99.90;;;;;;5058441;28;20057;-73
2022/08/13 01:44:24;;;;;;;28.73;15.00;;;17.00;99.90;;;;;;5042297;28;20040;-75
2022/08/13 01:52:41;;;;;;;31.38;16.98;;;17.40;99.90;;;;;;5075242;28;20048;-75
2022/08/13 01:55:10;;;;;;;26.25;16.63;;;17.00;99.90;;;;;;5056670;28;20056;-74
2022/08/13 01:57:44;;;;;;;30.83;16.80;;;16.90;99.90;;;;;;5057707;28;20048;-77
2022/08/13 02:00:23;;;;;;;33.78;18.10;;;16.40;99.90;;;;;;5074945;28;20048;-76
2022/08/13 02:02:56;;;;;;;34.83;16.23;;;16.80;99.90;;;;;;5039620;28;20060;-77
2022/08/13 02:05:27;;;;;;;31.33;16.63;;;16.40;99.90;;;;;;5057863;28;20047;-74
2022/08/13 02:08:22;;;;;;;31.65;18.27;;;16.80;99.90;;;;;;5073837;28;20048;-76
2022/08/13 02:10:53;;;;;;;37.20;19.20;;;16.70;99.90;;;;;;5057498;28;20467;-76
2022/08/13 02:13:29;;;;;;;36.13;19.23;;;16.70;99.90;;;;;;5041260;28;20521;-74
2022/08/13 02:16:05;;;;;;;31.35;19.08;;;16.70;99.90;;;;;;5073517;28;20064;-75
2022/08/13 02:18:33;;;;;;;33.17;19.55;;;16.70;99.90;;;;;;5074456;28;20048;-78
2022/08/13 02:21:04;;;;;;;31.25;19.33;;;16.70;99.90;;;;;;5074715;28;20045;-74
2022/08/13 02:23:56;;;;;;;28.08;20.15;;;16.60;99.90;;;;;;5074883;28;20067;-75
2022/08/13 02:26:32;;;;;;;28.27;17.15;;;16.60;99.90;;;;;;5074898;28;20044;-77
2022/08/13 02:29:04;;;;;;;26.45;15.20;;;16.50;99.90;;;;;;5039603;28;20052;-76
2022/08/13 02:31:34;;;;;;;29.98;16.73;;;16.50;99.90;;;;;;5057473;28;20044;-74
2022/08/13 02:34:22;;;;;;;28.27;14.60;;;16.50;99.90;;;;;;5060132;28;20047;-76
2022/08/13 02:36:53;;;;;;;28.10;13.90;;;16.50;99.90;;;;;;5056824;28;20371;-75
2022/08/13 02:39:42;;;;;;;24.38;12.38;;;16.50;99.90;;;;;;5060287;28;20048;-78
2022/08/13 02:42:12;;;;;;;18.90;12.13;;;16.70;99.90;;;;;;5055987;28;20052;-77
2022/08/13 02:44:47;;;;;;;20.45;12.27;;;16.40;99.90;;;;;;5075003;28;20463;-74
2022/08/13 02:47:16;;;;;;;21.33;11.80;;;16.40;99.90;;;;;;5039335;28;20052;-73
2022/08/13 02:49:44;;;;;;;24.52;12.55;;;16.40;99.90;;;;;;5055852;28;20051;-77
2022/08/13 02:52:14;;;;;;;27.15;13.00;;;16.30;99.90;;;;;;5057237;28;20060;-78
2022/08/13 02:54:45;;;;;;;21.88;12.50;;;16.30;99.90;;;;;;5055907;28;20054;-75
2022/08/13 02:57:25;;;;;;;23.33;12.82;;;16.30;99.90;;;;;;5074412;28;20052;-75
2022/08/13 02:59:55;;;;;;;23.98;12.43;;;16.30;99.90;;;;;;5057041;28;20463;-75
2022/08/13 03:02:38;;;;;;;21.80;12.05;;;16.30;99.90;;;;;;5055691;28;20048;-77
2022/08/13 03:05:09;;;;;;;21.20;11.45;;;16.00;99.90;;;;;;5074058;28;20048;-74
2022/08/13 03:07:46;;;;;;;18.08;11.57;;;16.30;99.90;;;;;;5074220;28;20056;-77
2022/08/13 03:10:22;;;;;;;25.45;13.35;;;16.00;99.90;;;;;;5057954;28;20045;-77
2022/08/13 03:13:11;;;;;;;21.17;12.45;;;16.20;99.90;;;;;;5074050;28;20055;-74
2022/08/13 03:15:40;;;;;;;24.90;13.10;;;15.60;99.90;;;;;;5073066;28;20048;-75
2022/08/13 03:18:22;;;;;;;24.63;13.65;;;16.10;99.90;;;;;;5073878;28;20049;-78
2022/08/13 03:20:52;;;;;;;23.10;14.57;;;16.10;99.90;;;;;;5040839;28;20040;-77
2022/08/13 03:23:23;;;;;;;28.13;14.25;;;16.00;99.90;;;;;;5072833;28;20044;-76
2022/08/13 03:25:52;;;;;;;22.50;13.13;;;16.00;99.90;;;;;;5056891;28;20056;-74
2022/08/13 03:28:20;;;;;;;28.67;14.27;;;16.00;99.90;;;;;;5057501;28;20049;-77
2022/08/13 03:30:48;;;;;;;23.38;13.40;;;15.90;99.90;;;;;;5043840;28;20044;-73
2022/08/13 03:33:22;;;;;;;23.50;13.07;;;15.90;99.90;;;;;;5077735;28;20482;-75
2022/08/13 03:35:51;;;;;;;22.75;13.10;;;15.90;99.90;;;;;;5059059;28;20371;-74
2022/08/13 03:38:18;;;;;;;21.92;13.32;;;15.90;99.90;;;;;;5076698;28;20059;-74
2022/08/13 03:41:03;;;;;;;22.33;12.65;;;15.90;99.90;;;;;;5060428;28;20060;-74
2022/08/13 03:43:30;;;;;;;26.00;12.00;;;16.10;99.90;;;;;;5077339;28;20040;-77
2022/08/13 03:45:59;;;;;;;22.13;12.80;;;15.90;99.90;;;;;;5077252;28;20043;-77
2022/08/13 03:48:28;;;;;;;20.20;12.15;;;15.80;99.90;;;;;;5076274;28;20057;-75
2022/08/13 03:50:59;;;;;;;27.92;13.32;;;15.80;99.90;;;;;;5059599;28;20071;-76
2022/08/13 03:53:28;;;;;;;24.70;13.25;;;15.80;99.90;;;;;;5077543;28;20063;-75
2022/08/13 03:56:12;;;;;;;20.83;12.55;;;15.70;99.90;;;;;;5076347;28;20045;-78
2022/08/13 03:58:44;;;;;;;19.05;13.15;;;15.70;99.90;;;;;;5060557;28;20044;-75
2022/08/13 04:01:17;;;;;;;25.08;12.82;;;15.70;99.90;;;;;;5076389;28;20044;-76
2022/08/13 04:03:46;;;;;;;24.40;12.55;;;15.80;99.90;;;;;;5076975;28;20355;-77
2022/08/13 04:06:19;;;;;;;17.63;11.20;;;15.70;99.90;;;;;;5077195;28;20040;-76
2022/08/13 04:08:52;;;;;;;20.63;11.68;;;15.60;99.90;;;;;;5058349;28;20051;-74
2022/08/13 04:11:22;;;;;;;;;;;15.60;99.90;;;;;;5077355;28;20067;-75
2022/08/13 04:13:54;;;;;;;16.75;10.45;;;15.70;99.90;;;;;;5077202;28;19920;-76
2022/08/13 04:16:41;;;;;;;21.52;10.57;;;15.60;99.90;;;;;;5058128;28;20068;-76
2022/08/13 04:19:14;;;;;;;17.55;10.90;;;15.70;99.90;;;;;;5076436;28;20051;-78
2022/08/13 04:21:46;;;;;;;23.40;11.70;;;15.70;99.90;;;;;;5058190;28;20044;-77
2022/08/13 04:24:18;;;;;;;18.00;10.95;;;15.70;99.90;;;;;;5076442;28;20052;-78
2022/08/13 04:26:48;;;;;;;23.17;12.10;;;15.60;99.90;;;;;;5077111;28;20045;-73
2022/08/13 04:29:17;;;;;;;20.83;12.88;;;15.80;99.90;;;;;;5058068;28;20049;-76
2022/08/13 04:31:47;;;;;;;23.50;12.85;;;15.60;99.90;;;;;;5076809;28;20475;-75
2022/08/13 04:34:20;;;;;;;27.52;14.38;;;15.60;99.90;;;;;;5076546;28;20055;-78
2022/08/13 04:37:10;;;;;;;23.02;14.52;;;15.60;99.90;;;;;;5076644;28;20056;-73
2022/08/13 04:39:53;;;;;;;31.35;15.05;;;15.50;99.90;;;;;;5076521;28;20055;-73
2022/08/13 04:42:48;;;;;;;31.33;17.02;;;15.30;99.90;;;;;;5060151;28;20036;-78
2022/08/13 04:45:17;;;;;;;27.75;15.40;;;15.70;99.90;;;;;;5076301;28;20048;-77
2022/08/13 04:47:50;;;;;;;25.85;15.10;;;15.30;99.90;;;;;;5075219;28;20063;-76
2022/08/13 04:50:18;;;;;;;28.65;16.35;;;15.50;99.90;;;;;;5058628;28;20466;-76
2022/08/13 04:52:46;;;;;;;29.17;16.25;;;15.30;99.90;;;;;;5076153;28;20364;-75
2022/08/13 04:55:17;;;;;;;27.65;15.32;;;15.40;99.90;;;;;;5057315;28;20044;-76
2022/08/13 04:57:46;;;;;;;25.65;15.00;;;15.30;99.90;;;;;;5058771;28;20111;-75
2022/08/13 05:00:32;;;;;;;25.98;16.05;;;15.30;99.90;;;;;;5076303;28;20048;-76
2022/08/13 05:03:29;;;;;;;25.38;15.88;;;15.40;99.90;;;;;;5057901;28;20056;-74
2022/08/13 05:06:18;;;;;;;22.13;14.83;;;15.80;99.90;;;;;;5076250;28;20337;-75
2022/08/13 05:08:49;;;;;;;;;;;15.40;99.90;;;;;;5075427;28;20044;-77
2022/08/13 05:11:22;;;;;;;17.60;13.45;;;15.30;99.90;;;;;;5041907;28;20382;-75
2022/08/13 05:13:50;;;;;;;21.48;13.40;;;15.60;99.90;;;;;;5075336;28;20071;-76
2022/08/13 05:16:23;;;;;;;23.90;13.80;;;16.20;99.90;;;;;;5056985;28;20106;-76
2022/08/13 05:18:55;;;;;;;21.85;13.45;;;14.80;99.90;;;;;;5058715;28;20048;-74
2022/08/13 05:21:25;;;;;;;23.17;14.55;;;15.80;99.90;;;;;;5056753;28;20300;-78
2022/08/13 05:24:12;;;;;;;20.05;13.25;;;15.80;99.90;;;;;;5060897;28;20056;-75
2022/08/13 05:27:00;;;;;;;24.63;15.73;;;15.80;99.90;;;;;;5044658;28;20036;-74
2022/08/13 05:29:41;;;;;;;23.40;15.77;;;15.70;99.90;;;;;;5074252;28;20045;-75
2022/08/13 05:32:28;;;;;;;30.58;16.15;;;15.80;99.90;;;;;;5060714;28;20045;-76
2022/08/13 05:35:16;;;;;;;24.08;15.63;;;15.70;99.90;;;;;;5056856;28;20048;-79
2022/08/13 05:38:04;;;;;;;;;;;16.80;99.90;;;;;;5075572;28;20037;-77
2022/08/13 05:40:46;;;;;;;26.52;16.27;;;16.00;99.90;;;;;;5060066;28;20026;-76
2022/08/13 05:43:23;;;;;;;24.55;16.13;;;16.00;99.90;;;;;;5056418;28;20045;-74
2022/08/13 05:45:59;;;;;;;25.23;15.70;;;15.80;99.90;;;;;;5058125;28;20056;-76
2022/08/13 05:48:36;;;;;;;25.88;16.48;;;16.00;99.90;;;;;;5074234;28;20045;-79
2022/08/13 05:51:08;;;;;;;29.52;16.42;;;15.90;99.90;;;;;;5057004;28;20467;-75
2022/08/13 05:53:38;;;;;;;22.63;16.23;;;15.90;99.90;;;;;;5074785;28;20040;-74
2022/08/13 05:56:36;;;;;;;29.23;17.05;;;16.40;99.90;;;;;;5056395;28;20056;-73
2022/08/13 05:59:05;;;;;;;30.35;16.27;;;16.00;99.90;;;;;;5074812;28;20044;-75
2022/08/13 06:04:26;;;;;;;22.98;15.88;;;16.00;99.90;;;;;;5075157;28;20367;-77
2022/08/13 06:07:06;;;;;;;23.52;16.10;;;16.60;99.90;;;;;;5057864;28;20041;-77
2022/08/13 06:09:34;;;;;;;22.40;15.85;;;16.20;99.90;;;;;;5073851;28;20375;-75
2022/08/13 06:12:03;;;;;;;24.33;14.73;;;16.20;99.90;;;;;;5074771;28;20048;-76
2022/08/13 06:14:54;;;;;;;;;;;16.70;99.90;;;;;;5043383;28;20071;-78
2022/08/13 06:17:23;;;;;;;30.13;15.15;;;16.50;99.90;;;;;;5057441;28;20262;-76
2022/08/13 06:19:57;;;;;;;29.75;14.00;;;16.40;99.90;;;;;;5075001;28;20045;-78
2022/08/13 06:22:26;;;;;;;28.45;13.88;;;16.40;99.90;;;;;;5056443;28;20048;-75
2022/08/13 06:24:54;;;;;;;25.00;13.52;;;16.70;99.90;;;;;;5074686;28;20360;-76
2022/08/13 06:27:24;;;;;;;26.73;13.45;;;16.60;99.90;;;;;;5057570;28;20070;-75
2022/08/13 06:30:18;;;;;;;23.77;13.02;;;16.60;99.90;;;;;;5074718;28;20049;-73
2022/08/13 06:33:03;;;;;;;22.67;12.80;;;15.90;99.90;;;;;;5074673;28;20048;-76
2022/08/13 06:36:00;;;;;;;21.15;11.98;;;17.10;99.90;;;;;;5053016;28;20056;-76
2022/08/13 06:38:41;;;;;;;25.45;11.75;;;17.10;99.90;;;;;;5034029;28;20060;-76
2022/08/13 06:41:19;;;;;;;24.67;12.50;;;17.20;99.90;;;;;;5052440;28;20056;-74
2022/08/13 06:43:51;;;;;;;18.60;11.45;;;17.20;99.90;;;;;;5053436;28;20045;-75
2022/08/13 06:46:30;;;;;;;24.65;11.27;;;17.30;99.90;;;;;;5054703;28;20068;-71
2022/08/13 06:49:00;;;;;;;18.88;10.73;;;17.40;99.90;;;;;;5053552;28;20052;-72
2022/08/13 06:51:32;;;;;;;20.20;11.00;;;17.60;99.90;;;;;;5054747;28;20107;-76
2022/08/13 06:54:08;;;;;;;25.00;11.48;;;17.70;99.90;;;;;;5037712;28;20064;-71
2022/08/13 06:56:57;;;;;;;25.02;11.10;;;17.80;99.90;;;;;;5054700;28;20044;-74
2022/08/13 06:59:46;;;;;;;20.73;10.70;;;17.80;99.90;;;;;;5054015;28;20041;-74
2022/08/13 07:02:35;;;;;;;23.08;10.32;;;18.00;99.90;;;;;;5036286;28;20052;-73
2022/08/13 07:05:05;;;;;;;22.88;10.60;;;18.10;99.90;;;;;;5040450;28;20060;-73
2022/08/13 07:07:45;;;;;;;20.45;10.38;;;18.20;99.90;;;;;;5057872;28;20041;-72
2022/08/13 07:10:16;;;;;;;23.95;9.98;;;18.30;99.90;;;;;;5040404;28;20060;-73
2022/08/13 07:12:44;;;;;;;21.38;9.98;;;18.40;99.90;;;;;;5057559;28;20455;-73
2022/08/13 07:15:15;;;;;;;19.77;9.63;;;18.60;99.90;;;;;;5056685;28;20061;-71
2022/08/13 07:17:51;;;;;;;21.70;9.82;;;18.50;99.90;;;;;;5056506;28;20053;-72
2022/08/13 07:20:22;;;;;;;20.58;9.80;;;19.00;99.90;;;;;;5039592;28;20053;-71
2022/08/13 07:22:57;;;;;;;18.13;9.88;;;18.70;99.90;;;;;;5056643;28;20048;-76
2022/08/13 07:25:46;;;;;;;16.73;9.38;;;18.60;99.90;;;;;;5040023;28;20045;-74
2022/08/13 07:28:29;;;;;;;18.83;8.85;;;18.90;99.90;;;;;;5040648;28;20463;-72
2022/08/13 07:31:26;;;;;;;21.55;9.15;;;18.90;99.90;;;;;;5040427;28;20041;-71
2022/08/13 07:34:14;;;;;;;25.92;8.90;;;19.00;99.90;;;;;;5058084;28;20376;-72
2022/08/13 07:36:43;;;;;;;17.55;8.15;;;19.10;99.90;;;;;;5039390;28;20045;-75
2022/08/13 07:39:25;;;;;;;16.42;8.10;;;19.20;99.90;;;;;;5057382;28;20052;-71
2022/08/13 07:41:54;;;;;;;19.58;8.50;;;19.40;99.90;;;;;;5056339;28;20407;-74
2022/08/13 07:44:31;;;;;;;23.42;8.90;;;19.20;99.90;;;;;;5057516;28;20041;-74
2022/08/13 07:47:21;;;;;;;24.00;8.07;;;19.50;99.90;;;;;;5057886;28;20041;-73
2022/08/13 07:49:54;;;;;;;18.95;8.13;;;19.60;99.90;;;;;;5056425;28;20049;-72
2022/08/13 07:52:27;;;;;;;17.13;7.50;;;19.50;99.90;;;;;;5057731;28;20352;-69
2022/08/13 07:55:00;;;;;;;18.70;6.93;;;19.80;99.90;;;;;;5056416;28;20049;-71
2022/08/13 07:57:31;;;;;;;23.90;7.72;;;19.90;99.90;;;;;;5057609;28;20049;-69
2022/08/13 08:00:21;;;;;;;16.20;7.45;;;20.00;99.90;;;;;;5056951;28;20045;-68
2022/08/13 08:02:58;;;;;;;20.77;6.75;;;20.00;99.90;;;;;;5054917;28;20101;-68
2022/08/13 08:05:31;;;;;;;17.37;6.87;;;20.20;99.90;;;;;;5039553;28;20040;-71
2022/08/13 08:08:10;;;;;;;17.05;6.93;;;20.30;99.90;;;;;;5055916;28;20289;-69
2022/08/13 08:10:54;;;;;;;21.33;7.10;;;20.40;99.90;;;;;;5056810;28;20052;-68
2022/08/13 08:13:26;;;;;;;20.92;7.32;;;20.50;99.90;;;;;;5056231;28;20045;-69
2022/08/13 08:15:55;;;;;;;21.13;7.55;;;20.70;99.90;;;;;;5055671;28;20045;-75
2022/08/13 08:18:33;;;;;;;22.25;7.57;;;20.90;99.90;;;;;;5039468;28;20053;-72
2022/08/13 08:21:23;;;;;;;13.27;5.88;;;20.80;99.90;;;;;;5055091;28;20574;-78
2022/08/13 08:24:13;;;;;;;22.58;8.00;;;20.90;99.90;;;;;;5053018;28;20053;-75
2022/08/13 08:26:58;;;;;;;15.98;7.38;;;21.10;99.90;;;;;;5039427;28;20380;-75
2022/08/13 08:29:26;;;;;;;19.77;7.32;;;21.20;99.90;;;;;;5055632;28;20375;-76
2022/08/13 08:32:05;;;;;;;16.13;7.10;;;21.70;99.60;;;;;;5056562;28;20048;-78
2022/08/13 08:34:45;;;;;;;11.85;6.28;;;21.60;99.20;;;;;;5055465;28;20052;-74
2022/08/13 08:43:18;;;;;;;13.20;5.90;;;21.70;97.80;;;;;;5055200;28;20040;-77
2022/08/13 08:45:52;;;;;;;18.88;6.03;;;21.60;97.80;;;;;;5056393;28;20353;-75
2022/08/13 08:48:41;;;;;;;15.23;5.35;;;22.00;97.20;;;;;;5040430;28;20045;-72
2022/08/13 08:51:10;;;;;;;13.40;5.47;;;22.00;96.70;;;;;;5056266;28;20045;-71
2022/08/13 08:53:48;;;;;;;17.70;5.90;;;22.10;96.50;;;;;;5056587;28;20056;-72
2022/08/13 08:56:37;;;;;;;19.63;5.25;;;22.20;95.60;;;;;;5054836;28;20373;-72
2022/08/13 08:59:24;;;;;;;17.70;5.18;;;22.20;95.20;;;;;;5056192;28;20056;-71
2022/08/13 09:01:56;;;;;;;13.65;5.00;;;22.40;94.80;;;;;;5054724;28;20486;-71
2022/08/13 09:04:29;;;;;;;13.48;5.85;;;22.50;94.50;;;;;;5055973;28;20345;-76
2022/08/13 09:07:17;;;;;;;14.43;5.18;;;22.50;93.80;;;;;;5055893;28;20076;-72
2022/08/13 09:09:58;;;;;;;16.13;4.82;;;22.70;93.40;;;;;;5054505;28;20049;-71
2022/08/13 09:12:26;;;;;;;15.98;4.82;;;22.80;92.80;;;;;;5055981;28;20048;-75
2022/08/13 09:14:57;;;;;;;13.30;5.28;;;23.50;93.00;;;;;;5053885;28;20045;-72
2022/08/13 09:17:27;;;;;;;16.60;5.00;;;23.00;92.30;;;;;;5055629;28;20480;-73
2022/08/13 09:20:15;;;;;;;14.77;4.28;;;23.10;91.90;;;;;;5055233;28;20451;-70
2022/08/13 09:22:46;;;;;;;12.15;4.03;;;23.20;91.70;;;;;;5054186;28;20037;-73
2022/08/13 09:25:23;;;;;;;15.75;4.20;;;23.30;91.40;;;;;;5054492;28;20056;-73
2022/08/13 09:27:53;;;;;;;14.07;4.22;;;23.40;91.10;;;;;;5054329;28;20452;-70
2022/08/13 09:30:41;;;;;;;14.57;4.07;;;23.60;90.60;;;;;;5055713;28;20053;-71
2022/08/13 09:33:12;;;;;;;12.52;4.13;;;23.90;90.00;;;;;;5055565;28;20371;-71
2022/08/13 09:35:43;;;;;;;13.18;3.58;;;23.90;89.80;;;;;;5054662;28;20048;-71
2022/08/13 09:38:12;;;;;;;13.32;4.07;;;24.10;88.90;;;;;;5055036;28;20379;-74
2022/08/13 09:40:50;;;;;;;10.75;3.90;;;24.20;88.00;;;;;;5055200;28;20056;-73
2022/08/13 09:43:40;;;;;;;14.40;3.70;;;24.30;86.70;;;;;;5055440;28;20052;-71
2022/08/13 09:46:16;;;;;;;10.98;3.17;;;24.50;85.60;;;;;;5055383;28;20490;-71
2022/08/13 09:48:51;;;;;;;12.77;3.55;;;24.60;85.40;;;;;;5053900;28;20041;-71
2022/08/13 09:51:22;;;;;;;15.00;3.47;;;24.60;84.20;;;;;;5055006;28;20045;-69
2022/08/13 09:54:10;;;;;;;15.90;3.20;;;24.80;83.10;;;;;;5023837;28;20384;-71
2022/08/13 09:56:39;;;;;;;10.27;3.45;;;24.80;83.50;;;;;;5036231;28;20041;-71
2022/08/13 09:59:10;;;;;;;8.25;3.80;;;25.00;82.90;;;;;;5055076;28;20355;-72
2022/08/13 10:01:57;;;;;;;12.57;3.10;;;25.00;82.20;;;;;;5053518;28;20363;-71
2022/08/13 10:04:29;;;;;;;8.75;2.88;;;25.10;81.90;;;;;;5037486;28;20075;-70
2022/08/13 10:07:00;;;;;;;10.55;3.10;;;25.20;81.10;;;;;;5054860;28;20048;-71
2022/08/13 10:09:39;;;;;;;9.77;3.38;;;25.30;80.30;;;;;;5053608;28;20055;-72
2022/08/13 10:12:22;;;;;;;10.32;3.20;;;25.50;79.00;;;;;;5054968;28;20045;-70
2022/08/13 10:14:50;;;;;;;14.10;3.05;;;25.60;78.40;;;;;;5053583;28;20049;-70
2022/08/13 10:17:25;;;;;;;9.65;2.70;;;25.70;77.60;;;;;;5054769;28;20037;-74
2022/08/13 10:20:20;;;;;;;7.10;2.70;;;25.80;76.20;;;;;;5054249;28;20041;-74
2022/08/13 10:22:49;;;;;;;9.25;2.90;;;25.90;74.90;;;;;;5053407;28;20045;-72
2022/08/13 10:25:23;;;;;;;15.95;3.10;;;26.00;75.50;;;;;;5054519;28;20053;-77
2022/08/13 10:28:34;;;;;;;11.57;2.50;;;26.10;75.30;;;;;;5053498;28;20044;-75
2022/08/13 10:31:07;;;;;;;9.75;3.17;;;26.30;73.10;;;;;;5054017;28;20056;-81
2022/08/13 10:33:55;;;;;;;10.35;3.33;;;26.00;74.10;;;;;;5054660;28;20041;-77
2022/08/13 10:36:29;;;;;;;10.55;3.22;;;26.50;77.70;;;;;;5053720;28;20053;-73
2022/08/13 10:39:07;;;;;;;7.57;3.00;;;26.70;75.00;;;;;;5058310;28;20056;-76
2022/08/13 10:41:42;;;;;;;11.80;3.30;;;27.20;74.70;;;;;;5056597;28;20044;-75
2022/08/13 10:44:30;;;;;;;10.68;3.25;;;26.80;73.80;;;;;;5058629;28;20048;-73
2022/08/13 10:47:01;;;;;;;14.23;2.95;;;25.70;73.70;;;;;;5058703;28;20045;-73
2022/08/13 10:49:31;;;;;;;11.20;3.33;;;25.30;71.90;;;;;;5039668;28;20056;-73
2022/08/13 10:52:02;;;;;;;8.02;2.97;;;26.90;73.20;;;;;;5058322;28;20048;-77
2022/08/13 10:54:33;;;;;;;9.15;2.75;;;27.00;72.90;;;;;;5057556;28;20049;-74
2022/08/13 10:57:07;;;;;;;10.68;2.72;;;27.00;72.60;;;;;;5057743;28;20052;-75
2022/08/13 10:59:44;;;;;;;10.45;3.17;;;27.00;72.40;;;;;;5058157;28;20049;-74
2022/08/13 11:02:12;;;;;;;16.23;3.13;;;27.10;71.60;;;;;;5056946;28;20064;-73
2022/08/13 11:04:48;;;;;;;11.57;3.20;;;27.20;72.30;;;;;;5057840;28;20457;-72
2022/08/13 11:07:46;;;;;;;10.65;3.10;;;27.30;72.10;;;;;;5058211;28;20044;-85
2022/08/13 11:10:18;;;;;;;14.23;3.10;;;27.30;72.20;;;;;;5058070;28;20487;-80
2022/08/13 11:12:50;;;;;;;15.73;2.97;;;28.20;74.70;;;;;;5058344;28;20049;-77
2022/08/13 11:15:23;;;;;;;;;;;27.80;71.50;;;;;;5056843;28;20052;-73
2022/08/13 11:17:55;;;;;;;10.82;2.88;;;27.50;70.00;;;;;;5040663;28;19931;-78
2022/08/13 11:20:30;;;;;;;9.77;2.88;;;27.70;70.80;;;;;;5057774;28;20375;-79
2022/08/13 11:23:01;;;;;;;10.63;3.38;;;28.10;72.40;;;;;;5056572;28;20464;-73
2022/08/13 11:25:37;;;;;;;9.85;3.13;;;27.90;71.00;;;;;;5040226;28;20494;-72
2022/08/13 11:28:25;;;;;;;9.65;3.20;;;28.00;72.30;;;;;;5056637;28;20037;-75
2022/08/13 11:30:55;;;;;;;9.90;3.03;;;28.20;71.60;;;;;;5057441;28;20061;-74
2022/08/13 11:33:25;;;;;;;10.82;3.20;;;28.20;70.50;;;;;;5057332;28;20052;-73
2022/08/13 11:36:13;;;;;;;10.50;2.60;;;28.30;70.30;;;;;;5056313;28;20063;-72
2022/08/13 11:38:42;;;;;;;9.45;2.97;;;28.50;70.10;;;;;;5057341;28;20353;-73
2022/08/13 11:41:10;;;;;;;9.85;2.67;;;28.60;69.60;;;;;;5056292;28;20045;-74
2022/08/13 11:43:49;;;;;;;9.10;2.90;;;28.70;68.50;;;;;;5057164;28;20044;-75
2022/08/13 11:46:25;;;;;;;10.43;2.90;;;28.80;67.50;;;;;;5056658;28;20475;-73
2022/08/13 11:48:53;;;;;;;9.23;2.60;;;28.90;66.40;;;;;;5037582;28;20051;-72
2022/08/13 11:51:38;;;;;;;13.15;2.40;;;29.00;65.00;;;;;;5057469;28;20044;-72
2022/08/13 11:54:20;;;;;;;9.57;2.70;;;29.20;63.90;;;;;;5057226;28;20063;-73
2022/08/13 11:56:59;;;;;;;4.22;2.20;;;29.30;63.00;;;;;;5039908;28;20371;-75
2022/08/13 11:59:26;;;;;;;8.80;2.50;;;29.30;61.80;;;;;;5056889;28;20045;-72
2022/08/13 12:02:07;;;;;;;7.53;2.55;;;29.50;61.60;;;;;;5055020;28;20041;-74
2022/08/13 12:04:43;;;;;;;8.10;2.25;;;29.60;60.50;;;;;;5039112;28;20060;-75
2022/08/13 12:07:23;;;;;;;6.22;2.50;;;29.70;59.50;;;;;;5039987;28;20048;-75
2022/08/13 12:09:55;;;;;;;5.82;2.20;;;29.80;58.60;;;;;;5055422;28;20049;-74
2022/08/13 12:12:27;;;;;;;7.70;2.40;;;29.90;57.70;;;;;;5056791;28;20045;-74
2022/08/13 12:14:59;;;;;;;5.45;2.50;;;30.00;57.20;;;;;;5054881;28;20483;-78
2022/08/13 12:17:29;;;;;;;7.00;2.45;;;30.20;57.70;;;;;;5056420;28;20045;-72
2022/08/13 12:20:21;;;;;;;9.70;2.25;;;30.20;57.30;;;;;;5056429;28;20036;-76
2022/08/13 12:22:57;;;;;;;5.82;2.08;;;30.30;57.10;;;;;;5039236;28;20045;-73
2022/08/13 12:25:28;;;;;;;11.27;2.25;;;30.40;56.60;;;;;;5056315;28;20494;-76
2022/08/13 12:28:13;;;;;;;3.13;2.10;;;30.50;56.50;;;;;;5023080;28;20044;-78
2022/08/13 12:30:52;;;;;;;6.60;2.30;;;30.60;56.00;;;;;;5055625;28;20041;-71
2022/08/13 12:33:20;;;;;;;6.07;2.08;;;30.70;54.30;;;;;;5056316;28;20045;-73
2022/08/13 12:35:50;;;;;;;10.30;2.03;;;30.70;53.40;;;;;;5037639;28;20041;-75
2022/08/13 12:38:25;;;;;;;8.77;1.90;;;30.90;52.90;;;;;;5039149;28;20045;-73
2022/08/13 12:40:59;;;;;;;8.27;2.40;;;30.90;52.20;;;;;;5056408;28;20463;-74
2022/08/13 12:43:47;;;;;;;6.43;2.22;;;31.00;52.20;;;;;;5056197;28;20498;-73
2022/08/13 12:46:35;;;;;;;5.07;2.10;;;31.10;52.10;;;;;;5055996;28;20052;-74
2022/08/13 12:49:04;;;;;;;8.43;1.85;;;31.20;52.20;;;;;;5054949;28;20044;-72
2022/08/13 12:51:42;;;;;;;8.05;2.08;;;31.30;51.60;;;;;;5056411;28;20329;-76
2022/08/13 12:54:27;;;;;;;12.23;2.53;;;31.40;51.30;;;;;;5056052;28;20041;-75
2022/08/13 12:57:15;;;;;;;6.90;2.30;;;31.40;51.00;;;;;;5056418;28;20044;-72
2022/08/13 13:00:07;;;;;;;4.72;1.63;;;31.40;52.10;;;;;;5055147;28;20052;-72
2022/08/13 13:02:40;;;;;;;4.75;1.73;;;31.40;49.20;;;;;;5054883;28;20495;-72
2022/08/13 13:05:15;;;;;;;5.90;2.60;;;31.50;49.90;;;;;;5055851;28;20041;-72
2022/08/13 13:07:48;;;;;;;8.27;2.50;;;31.50;50.00;;;;;;5038693;28;20056;-72
2022/08/13 13:10:40;;;;;;;4.38;1.80;;;31.60;49.30;;;;;;5055738;28;20041;-74
2022/08/13 13:13:09;;;;;;;3.67;1.75;;;31.70;48.50;;;;;;5038212;28;20045;-74
2022/08/13 13:15:57;;;;;;;5.88;1.85;;;31.80;48.70;;;;;;5054514;28;20041;-72
2022/08/13 13:18:45;;;;;;;8.07;1.63;;;31.90;48.60;;;;;;5055081;28;20057;-70
2022/08/13 13:21:33;;;;;;;6.40;2.20;;;31.90;48.10;;;;;;5054370;28;20304;-75
2022/08/13 13:24:07;;;;;;;7.18;2.20;;;32.00;47.70;;;;;;5055471;28;20460;-76
2022/08/13 13:26:48;;;;;;;7.75;2.25;;;32.00;47.90;;;;;;5055641;28;20041;-76
2022/08/13 13:29:32;;;;;;;4.97;1.73;;;32.00;47.40;;;;;;5036949;28;20049;-71
2022/08/13 13:32:13;;;;;;;6.82;1.73;;;32.10;47.10;;;;;;5055242;28;20064;-73
2022/08/13 13:35:01;;;;;;;;;;;32.10;45.50;;;;;;5055137;28;20036;-73
2022/08/13 13:37:49;;;;;;;4.75;1.55;;;32.10;45.40;;;;;;5055493;28;19920;-72
2022/08/13 13:40:38;;;;;;;6.40;1.60;;;32.20;47.60;;;;;;5055080;28;20056;-75
2022/08/13 13:43:12;;;;;;;21.63;2.90;;;32.10;46.50;;;;;;5054255;28;20044;-73
2022/08/13 13:45:53;;;;;;;3.60;1.80;;;32.30;47.00;;;;;;5055292;28;20636;-73